• Join FlightAware (Why Join?)
  • Login
  • US Flag 
06:59AM EDT


 

Airport Tracker/Info


-or-


 

Live Flight TrackerFlight Track Log ✈ TCF3494 ✈ 11-Nov-2013 ✈ KSLC - KORD

Flight Track Log - Related Links

Times and Time Zones

All times are in EST time to prevent confusion due to time zone crossing. See the TCF3494 flight status page for this flight to view local times or setup timezone preferences in your user account.

Time Position Orientation Groundspeed Altitude Reporting Facility
EST Latitude Longitude Course Direction KTS MPH feet Rate Location/Type
06:35PM 40.9075 -111.9914 354° North 222 255 8,000  Level Salt Lake Center
06:36PM 40.9806 -112.0008 354° North 261 300 10,900 2,340 Climbing Salt Lake Center
06:37PM 41.0256 -111.8958 60° Northeast 335 386 12,900 2,040 Climbing Salt Lake Center
06:38PM 41.0261 -111.7756 90° East 358 412 15,200 2,340 Climbing Salt Lake Center
06:39PM 41.0483 -111.6494 77° East 354 407 17,700 2,160 Climbing Salt Lake Center
06:40PM 41.0758 -111.5231 74° East 358 412 19,700 1,680 Climbing Salt Lake Center
06:41PM 41.1122 -111.3567 74° East 395 455 21,200 1,560 Climbing Salt Lake Center
06:42PM 41.1428 -111.2108 74° East 409 471 23,000 1,560 Climbing Salt Lake Center
06:43PM 41.1753 -111.0589 74° East 423 487 24,500 1,440 Climbing Salt Lake Center
06:44PM 41.2097 -110.8950 74° East 435 501 26,000 1,260 Climbing Salt Lake Center
06:45PM 41.2411 -110.7444 74° East 441 507 27,200 1,080 Climbing Salt Lake Center
06:46PM 41.2736 -110.5883 74° East 452 520 28,200 1,020 Climbing Salt Lake Center
06:47PM 41.3125 -110.4053 74° East 461 531 29,300 780 Climbing Salt Lake Center
06:48PM 41.3458 -110.2444 75° East 470 541 29,900 900 Climbing Salt Lake Center
06:49PM 41.3839 -110.0561 75° East 471 542 31,200 1,020 Climbing Salt Lake Center
06:50PM 41.4172 -109.8947 75° East 473 544 32,100 840 Climbing Salt Lake Center
06:51PM 41.4494 -109.7336 75° East 472 543 33,000 840 Climbing Salt Lake Center
06:52PM 41.4869 -109.5439 75° East 472 543 33,900 780 Climbing Salt Lake Center
06:53PM 41.5197 -109.3817 75° East 471 542 34,700 480 Climbing Salt Lake Center
06:54PM 41.5581 -109.1872 75° East 476 548 35,000 120 Climbing Salt Lake Center
06:55PM 41.5886 -109.0139 77° East 488 562 35,000  Level Salt Lake Center
06:56PM 41.6044 -108.8375 83° East 494 568 35,000  Level Salt Lake Center
06:57PM 41.6203 -108.6328 84° East 494 568 35,000  Level Salt Lake Center
06:58PM 41.6328 -108.4578 84° East 495 570 35,000  Level Salt Lake Center
06:59PM 41.6447 -108.2808 85° East 498 573 35,000  Level Salt Lake Center
07:00PM 41.6611 -108.0758 84° East 497 572 35,000  Level Salt Lake Center
07:01PM 41.6731 -107.8978 85° East 502 578 35,000  Level Salt Lake Center
07:02PM 41.6878 -107.6914 84° East 500 575 35,000  Level Salt Lake Center
07:03PM 41.6983 -107.5128 85° East 502 578 35,000  Level Salt Lake Center
07:04PM 41.7100 -107.3342 85° East 504 580 35,000  Level Salt Lake Center
07:05PM 41.7242 -107.1261 85° East 501 577 35,000  Level Salt Lake Center
07:06PM 41.7356 -106.9467 85° East 504 580 35,000  Level Salt Lake Center
07:08PM 41.7481 -106.7389 85° East 502 578 35,000  Level Salt Lake Center
07:09PM 41.7567 -106.5694 86° East 504 580 35,000  Level Salt Lake Center
07:10PM 41.7683 -106.3597 86° East 505 581 35,000  Level Salt Lake Center
07:11PM 41.7781 -106.1797 86° East 508 585 35,000  Level Salt Lake Center
07:12PM 41.7903 -105.9403 86° East 506 582 35,000  Level Denver Center
07:13PM 41.8014 -105.7619 85° East 503 579 35,000  Level Denver Center
07:14PM 41.8108 -105.5814 86° East 507 583 35,000  Level Denver Center
07:15PM 41.8206 -105.3722 86° East 506 582 35,000  Level Denver Center
07:16PM 41.8281 -105.1928 87° East 506 582 35,000  Level Denver Center
07:17PM 41.8375 -104.9817 86° East 509 586 35,000  Level Denver Center
07:18PM 41.8450 -104.8006 87° East 511 588 35,000  Level Denver Center
07:19PM 41.8536 -104.5917 87° East 504 580 35,000  Level Denver Center
07:20PM 41.8614 -104.4114 87° East 508 585 35,000  Level Denver Center
07:21PM 41.8686 -104.2014 87° East 507 583 35,000  Level Denver Center
07:22PM 41.8750 -104.0225 87° East 505 581 35,000  Level Denver Center
07:23PM 41.8825 -103.8111 87° East 508 585 35,000  Level Denver Center
07:24PM 41.8881 -103.6314 88° East 506 582 35,000  Level Denver Center
07:25PM 41.8978 -103.4519 86° East 506 582 35,000  Level Denver Center
07:26PM 41.9264 -103.2472 79° East 501 577 35,000  Level Denver Center
07:27PM 41.9506 -103.0731 79° East 499 574 35,000  Level Denver Center
07:28PM 41.9786 -102.8672 80° East 502 578 35,000  Level Denver Center
07:29PM 42.0031 -102.6892 79° East 506 582 35,000  Level Denver Center
07:30PM 42.0303 -102.4819 80° East 504 580 35,000  Level Denver Center
07:31PM 42.0547 -102.3028 80° East 509 586 35,000  Level Denver Center
07:32PM 42.0822 -102.1000 80° East 509 586 35,000  Level Denver Center
07:33PM 42.1053 -101.9206 80° East 508 585 35,000  Level Denver Center
07:34PM 42.1317 -101.7094 80° East 511 588 35,000  Level Denver Center
07:35PM 42.1550 -101.5292 80° East 510 587 35,000  Level Denver Center
07:36PM 42.1800 -101.3167 81° East 513 590 35,000  Level Denver Center
07:38PM 42.2022 -101.1358 81° East 512 589 35,000  Level Denver Center
07:39PM 42.2244 -100.9514 81° East 516 594 35,000  Level Denver Center
07:40PM 42.2494 -100.7375 81° East 517 595 35,000  Level Denver Center
07:41PM 42.2708 -100.5536 81° East 517 595 35,000  Level Denver Center
07:42PM 42.2956 -100.3367 81° East 522 601 35,000  Level Denver Center
07:43PM 42.3172 -100.1514 81° East 521 600 35,000  Level Denver Center
07:43PM 42.3294 -100.0308 82° East 523 602 35,000  Level Minneapolis Center
07:44PM 42.3511 -99.8344 81° East 526 605 35,000  Level Minneapolis Center
07:45PM 42.3722 -99.6378 82° East 526 605 35,000  Level Minneapolis Center
07:46PM 42.3981 -99.4008 82° East 528 608 35,000  Level Minneapolis Center
07:47PM 42.4181 -99.2028 82° East 531 611 35,000  Level Minneapolis Center
07:48PM 42.4392 -99.0058 82° East 528 608 35,000  Level Minneapolis Center
07:50PM 42.4589 -98.8058 82° East 533 613 35,000  Level Minneapolis Center
07:51PM 42.4750 -98.6036 84° East 537 618 35,000  Level Minneapolis Center
07:52PM 42.4850 -98.3997 86° East 540 621 35,000  Level Minneapolis Center
07:53PM 42.4944 -98.1964 86° East 540 621 35,000  Level Minneapolis Center
07:54PM 42.5039 -97.9917 86° East 542 624 35,000  Level Minneapolis Center
07:55PM 42.5144 -97.7550 86° East 547 629 35,000  Level Minneapolis Center
07:56PM 42.5231 -97.5506 87° East 544 626 35,000  Level Minneapolis Center
07:57PM 42.5308 -97.3433 87° East 548 631 35,000  Level Minneapolis Center
07:58PM 42.5392 -97.1372 87° East 548 631 35,000  Level Minneapolis Center
07:59PM 42.5469 -96.9289 87° East 550 633 35,000  Level Minneapolis Center
08:00PM 42.5547 -96.7206 87° East 551 634 35,000  Level Minneapolis Center
08:01PM 42.5606 -96.5136 88° East 550 633 35,000  Level Minneapolis Center
08:02PM 42.5678 -96.3050 87° East 553 636 35,000  Level Minneapolis Center
08:03PM 42.5733 -96.0953 88° East 555 639 35,000  Level Minneapolis Center
08:04PM 42.5803 -95.8439 88° East 555 639 35,000  Level Minneapolis Center
08:05PM 42.5861 -95.6308 88° East 562 647 35,000  Level Minneapolis Center
08:06PM 42.5906 -95.4197 88° East 560 644 35,000  Level Minneapolis Center
08:07PM 42.5942 -95.2094 89° East 558 642 35,000  Level Minneapolis Center
08:08PM 42.5994 -94.9989 88° East 560 644 35,000  Level Minneapolis Center
08:09PM 42.6022 -94.7886 89° East 559 643 35,000  Level Minneapolis Center
08:10PM 42.6069 -94.5914 88° East 560 644 35,000  Level Minneapolis Center
08:11PM 42.6081 -94.3389 90° East 562 647 35,000  Level Minneapolis Center
08:12PM 42.6044 -94.1286 91° East 561 646 35,000  Level Minneapolis Center
08:13PM 42.5981 -93.9181 92° East 564 649 35,000  Level Minneapolis Center
08:14PM 42.5917 -93.7078 92° East 563 648 35,000  Level Minneapolis Center
08:15PM 42.5828 -93.4956 93° East 566 651 35,000  Level Minneapolis Center
08:16PM 42.5767 -93.2844 92° East 566 651 35,000  Level Minneapolis Center
08:17PM 42.5681 -93.0719 93° East 564 649 35,000  Level Chicago Center
08:18PM 42.5589 -92.8594 93° East 566 651 35,000  Level Chicago Center
08:19PM 42.5492 -92.6464 93° East 571 657 35,000  Level Chicago Center
08:20PM 42.5400 -92.4336 93° East 571 657 35,000 -60 Level Chicago Center
08:21PM 42.5286 -92.1808 93° East 569 655 34,900 -780 Descending Chicago Center
08:22PM 42.5233 -91.9700 92° East 569 655 33,500 -960 Descending Chicago Center
08:23PM 42.5253 -91.7589 89° East 570 656 33,000 -660 Descending Chicago Center
08:24PM 42.5269 -91.5494 89° East 571 657 32,200 -960 Descending Chicago Center
08:25PM 42.5272 -91.2978 90° East 569 655 31,100 -1,020 Descending Chicago Center
08:26PM 42.5261 -91.0847 90° East 572 658 30,100 -1,020 Descending Chicago Center
08:27PM 42.5261 -90.8647 90° East 588 677 29,100 -1,020 Descending Chicago Center
08:28PM 42.5242 -90.6503 91° East 577 664 28,100 -1,020 Descending Chicago Center
08:29PM 42.5231 -90.4386 90° East 569 655 27,100 -540 Descending Chicago Center
08:31PM 42.5203 -90.1911 91° East 555 639 27,000 -540 Descending Chicago Center
08:32PM 42.5189 -89.9839 90° East 555 639 26,100 -1,980 Descending Chicago Center
08:33PM 42.5053 -89.7958 96° East 546 628 23,000 -3,720 Descending Chicago Center
08:34PM 42.4894 -89.5753 95° East 493 567 18,500 -3,840 Descending Chicago Center
08:35PM 42.4775 -89.4053 95° East 461 531 15,100 -2,640 Descending Chicago Center
08:36PM 42.4664 -89.2544 96° East 414 476 13,100 -1,020 Descending Chicago Center
08:37PM 42.4553 -89.1092 96° East 393 452 13,100  Level Chicago Center
08:38PM 42.4442 -88.9639 96° East 391 450 13,100 -60 Level Chicago Center
08:39PM 42.4306 -88.7936 96° East 386 444 13,000 -960 Descending Chicago Center
08:40PM 42.4178 -88.6481 97° East 391 450 11,100 -960 Descending Chicago Center
08:41PM 42.3797 -88.5167 111° Southeast 380 437 11,100 -60 Level Chicago Center
08:42PM 42.3392 -88.3858 113° Southeast 380 437 11,000 -540 Descending Chicago Center
08:43PM 42.2633 -88.2614 129° Southeast 374 430 10,000 -540 Descending Chicago Center
08:44PM 42.1983 -88.1544 129° Southeast 371 427 10,000 -300 Level Chicago Center
08:45PM 42.1306 -88.0725 138° Southeast 331 381 9,500 -1,020 Descending Chicago Center
08:46PM 42.0911 -87.9844 121° Southeast 289 333 8,000 -1,140 Descending Chicago Center
08:47PM 42.0833 -87.8500 94° East 223 257 7,000 -480 Descending Chicago TRACON
08:48PM 42.0833 -87.7833 90° East 194 223 7,000 -420 Level Chicago TRACON
08:49PM 42.0833 -87.7167 90° East 188 216 6,200 -1,080 Descending Chicago TRACON
08:50PM 42.0667 -87.6500 109° East 206 237 4,900 -1,080 Descending Chicago TRACON
08:51PM 42.0167 -87.6833 206° Southwest 209 241 4,100 -900 Descending Chicago TRACON
08:52PM 42.0000 -87.7333 246° West 187 215 3,100 -1,020 Descending Chicago TRACON
08:53PM 42.0000 -87.8000 270° West 171 197 2,100 -900 Descending Chicago TRACON
08:54PM 42.0000 -87.8667 270° West 134 154 1,300 -840 Descending Chicago TRACON